createdAt,value
2017-08-28T00:01:48.416Z,6.37
2017-08-28T00:04:22.906Z,5.95
2017-08-28T00:06:57.457Z,5.95
2017-08-28T00:09:31.977Z,7.18
2017-08-28T00:12:06.465Z,6.50
2017-08-28T00:14:41.087Z,6.57
2017-08-28T00:17:15.399Z,6.45
2017-08-28T00:19:49.841Z,6.82
2017-08-28T00:22:24.331Z,8.13
2017-08-28T00:24:59.499Z,6.47
2017-08-28T00:27:33.923Z,7.10
2017-08-28T00:30:08.302Z,6.90
2017-08-28T00:32:42.762Z,6.32
2017-08-28T00:35:17.240Z,6.68
2017-08-28T00:37:51.756Z,6.55
2017-08-28T00:40:26.222Z,6.45
2017-08-28T00:43:00.816Z,11.23
2017-08-28T00:45:35.153Z,8.23
2017-08-28T00:48:09.799Z,7.45
2017-08-28T00:50:44.133Z,9.93
2017-08-28T00:53:18.549Z,9.07
2017-08-28T00:55:53.081Z,9.50
2017-08-28T00:58:27.672Z,8.57
2017-08-28T01:01:02.045Z,15.90
2017-08-28T01:03:36.716Z,9.90
2017-08-28T01:06:11.106Z,7.75
2017-08-28T01:08:45.917Z,10.30
2017-08-28T01:11:20.416Z,11.35
2017-08-28T01:13:54.775Z,10.70
2017-08-28T01:16:29.158Z,8.18
2017-08-28T01:19:03.639Z,10.07
2017-08-28T01:21:37.996Z,13.18
2017-08-28T01:24:12.445Z,10.95
2017-08-28T01:26:47.032Z,14.52
2017-08-28T01:29:21.401Z,10.38
2017-08-28T01:31:55.795Z,13.27
2017-08-28T01:34:30.265Z,14.80
2017-08-28T01:37:04.734Z,11.07
2017-08-28T01:39:39.083Z,10.68
2017-08-28T01:42:13.536Z,11.73
2017-08-28T01:44:47.879Z,10.93
2017-08-28T01:47:22.388Z,10.80
2017-08-28T01:49:56.839Z,9.75
2017-08-28T01:52:31.426Z,9.88
2017-08-28T01:55:05.973Z,10.40
2017-08-28T01:57:40.457Z,11.45
2017-08-28T02:00:14.844Z,9.77
2017-08-28T02:02:49.362Z,9.18
2017-08-28T02:05:23.841Z,11.38
2017-08-28T02:07:58.137Z,9.20
2017-08-28T02:10:32.700Z,15.65
2017-08-28T02:13:07.281Z,9.23
2017-08-28T02:15:41.916Z,9.30
2017-08-28T02:18:16.506Z,9.77
2017-08-28T02:20:50.830Z,10.90
2017-08-28T02:23:25.506Z,10.55
2017-08-28T02:25:59.931Z,11.27
2017-08-28T02:28:34.317Z,11.32
2017-08-28T02:31:08.645Z,10.02
2017-08-28T02:33:43.158Z,9.43
2017-08-28T02:36:17.665Z,11.80
2017-08-28T02:38:52.378Z,12.88
2017-08-28T02:41:26.725Z,8.63
2017-08-28T02:44:01.088Z,10.95
2017-08-28T02:46:35.825Z,11.30
2017-08-28T02:49:10.322Z,10.30
2017-08-28T02:51:44.742Z,10.98
2017-08-28T02:54:19.257Z,10.82
2017-08-28T02:56:53.879Z,11.35
2017-08-28T02:59:28.268Z,13.07
2017-08-28T03:02:02.649Z,16.45
2017-08-28T03:04:36.962Z,12.90
2017-08-28T03:07:11.560Z,14.13
2017-08-28T03:09:45.848Z,11.73
2017-08-28T03:12:20.446Z,14.60
2017-08-28T03:14:54.850Z,12.93
2017-08-28T03:17:29.181Z,15.40
2017-08-28T03:20:03.585Z,16.42
2017-08-28T03:22:38.152Z,12.95
2017-08-28T03:25:12.659Z,14.65
2017-08-28T03:27:47.460Z,13.85
2017-08-28T03:30:21.947Z,14.40
2017-08-28T03:32:56.325Z,14.90
2017-08-28T03:35:30.826Z,13.90
2017-08-28T03:38:05.641Z,17.45
2017-08-28T03:40:40.190Z,15.52
2017-08-28T03:43:14.730Z,11.32
2017-08-28T03:45:49.093Z,13.48
2017-08-28T03:48:23.810Z,13.15
2017-08-28T03:50:58.160Z,12.25
2017-08-28T03:53:32.624Z,12.05
2017-08-28T03:56:07.097Z,13.80
2017-08-28T03:58:41.470Z,11.35
2017-08-28T04:01:15.829Z,11.70
2017-08-28T04:03:50.352Z,12.88
2017-08-28T04:06:24.746Z,11.27
2017-08-28T04:08:59.282Z,13.00
2017-08-28T04:11:33.680Z,11.10
2017-08-28T04:14:08.073Z,12.25
2017-08-28T04:16:42.757Z,14.48
2017-08-28T04:19:17.060Z,12.90
2017-08-28T04:21:51.687Z,11.77
2017-08-28T04:24:26.240Z,11.65
2017-08-28T04:27:00.693Z,12.18
2017-08-28T04:29:35.346Z,12.02
2017-08-28T04:32:09.771Z,11.50
2017-08-28T04:34:44.168Z,11.38
2017-08-28T04:37:18.774Z,12.40
2017-08-28T04:39:53.221Z,13.13
2017-08-28T04:42:27.647Z,10.60
2017-08-28T04:45:02.023Z,12.20
2017-08-28T04:47:36.398Z,13.20
2017-08-28T04:50:10.770Z,13.05
2017-08-28T04:52:45.231Z,11.10
2017-08-28T04:55:19.705Z,14.95
2017-08-28T04:57:54.169Z,11.27
2017-08-28T05:00:28.553Z,13.32
2017-08-28T05:03:03.796Z,11.88
2017-08-28T05:05:38.352Z,12.25
2017-08-28T05:08:12.676Z,13.50
2017-08-28T05:10:47.368Z,17.85
2017-08-28T05:13:21.897Z,10.90
2017-08-28T05:15:56.350Z,10.18
2017-08-28T05:18:30.709Z,10.43
2017-08-28T05:21:05.057Z,11.10
2017-08-28T05:23:39.335Z,12.35
2017-08-28T05:26:13.869Z,12.02
2017-08-28T05:28:48.425Z,10.38
2017-08-28T05:31:22.780Z,10.13
2017-08-28T05:33:57.252Z,10.18
2017-08-28T05:36:31.756Z,12.55
2017-08-28T05:39:06.288Z,11.77
2017-08-28T05:41:40.653Z,11.80
2017-08-28T05:44:15.105Z,11.45
2017-08-28T05:46:49.777Z,10.48
2017-08-28T05:49:24.104Z,10.77
2017-08-28T05:51:58.484Z,11.75
2017-08-28T05:54:32.929Z,10.80
2017-08-28T05:57:07.545Z,10.57
2017-08-28T05:59:41.961Z,11.55
2017-08-28T06:02:17.337Z,8.85
2017-08-28T06:04:51.622Z,8.80
2017-08-28T06:07:26.260Z,15.13
2017-08-28T06:10:00.558Z,11.15
2017-08-28T06:12:35.100Z,9.93
2017-08-28T06:15:09.514Z,10.10
2017-08-28T06:17:43.965Z,9.32
2017-08-28T06:20:18.414Z,9.10
2017-08-28T06:22:52.927Z,9.82
2017-08-28T06:25:27.394Z,10.68
2017-08-28T06:28:01.773Z,9.68
2017-08-28T06:30:36.254Z,11.23
2017-08-28T06:33:10.933Z,9.75
2017-08-28T06:35:45.420Z,8.65
2017-08-28T06:38:19.757Z,9.82
2017-08-28T06:40:54.176Z,7.75
2017-08-28T06:43:28.656Z,9.55
2017-08-28T06:46:03.153Z,9.27
2017-08-28T06:48:37.683Z,6.78
2017-08-28T06:51:13.323Z,6.03
2017-08-28T06:53:48.084Z,6.75
2017-08-28T06:56:22.453Z,6.55
2017-08-28T06:58:57.201Z,8.27
2017-08-28T07:01:31.712Z,7.78
2017-08-28T07:04:06.057Z,8.07
2017-08-28T07:06:41.276Z,6.90
2017-08-28T07:09:15.576Z,7.05
2017-08-28T07:11:50.136Z,6.47
2017-08-28T07:14:24.917Z,7.28
2017-08-28T07:16:59.481Z,5.45
2017-08-28T07:19:34.224Z,6.15
2017-08-28T07:22:09.153Z,7.65
2017-08-28T07:24:43.520Z,4.60
2017-08-28T07:27:18.016Z,5.50
2017-08-28T07:29:52.383Z,6.18
2017-08-28T07:32:29.592Z,5.57
2017-08-28T07:35:04.101Z,3.92
2017-08-28T07:37:40.429Z,7.43
2017-08-28T07:40:15.022Z,3.58
2017-08-28T07:42:51.743Z,3.03
2017-08-28T07:45:26.155Z,5.15
2017-08-28T07:48:00.624Z,4.32
2017-08-28T07:50:35.346Z,2.72
2017-08-28T07:53:09.856Z,2.65
2017-08-28T07:55:44.208Z,2.97
2017-08-28T07:58:18.902Z,2.70
2017-08-28T08:00:53.977Z,2.33
2017-08-28T08:03:28.548Z,2.30
2017-08-28T08:06:03.080Z,1.90
2017-08-28T08:08:37.505Z,3.65
2017-08-28T08:11:11.954Z,2.90
2017-08-28T08:13:46.277Z,2.15
2017-08-28T08:16:20.842Z,3.83
2017-08-28T08:18:55.140Z,2.10
2017-08-28T08:21:29.544Z,2.08
2017-08-28T08:24:05.219Z,4.30
2017-08-28T08:26:39.748Z,2.33
2017-08-28T08:29:14.073Z,3.12
2017-08-28T08:31:48.585Z,3.40
2017-08-28T08:34:23.753Z,3.60
2017-08-28T08:36:59.432Z,3.75
2017-08-28T08:39:34.108Z,3.30
2017-08-28T08:42:08.445Z,3.17
2017-08-28T08:44:43.052Z,3.28
2017-08-28T08:47:17.674Z,2.42
2017-08-28T08:49:52.090Z,7.78
2017-08-28T08:52:26.468Z,2.40
2017-08-28T08:55:01.693Z,2.28
2017-08-28T08:57:36.178Z,2.80
2017-08-28T09:00:10.900Z,3.80
2017-08-28T09:02:45.392Z,2.70
2017-08-28T09:05:19.926Z,5.70
2017-08-28T09:07:54.292Z,3.60
2017-08-28T09:10:28.680Z,4.15
2017-08-28T09:13:03.065Z,3.87
2017-08-28T09:15:37.623Z,2.90
2017-08-28T09:18:11.986Z,2.37
2017-08-28T09:20:46.654Z,2.67
2017-08-28T09:23:21.175Z,3.22
2017-08-28T09:25:55.908Z,2.67
2017-08-28T09:28:30.268Z,2.80
2017-08-28T09:31:04.773Z,3.60
2017-08-28T09:33:39.212Z,3.90
2017-08-28T09:36:13.722Z,3.47
2017-08-28T09:38:47.988Z,3.23
2017-08-28T09:41:22.716Z,3.70
2017-08-28T09:43:57.323Z,2.87
2017-08-28T09:46:31.773Z,2.30
2017-08-28T09:49:06.325Z,1.80
2017-08-28T09:51:40.833Z,1.90
2017-08-28T09:54:15.229Z,3.47
2017-08-28T09:56:49.848Z,3.97
2017-08-28T09:59:24.257Z,4.17
2017-08-28T10:01:58.956Z,4.40
2017-08-28T10:04:33.405Z,3.50
2017-08-28T10:07:07.856Z,4.20
2017-08-28T10:09:42.284Z,8.03
2017-08-28T10:12:16.778Z,4.80
2017-08-28T10:14:51.525Z,3.83
2017-08-28T10:17:25.920Z,5.23
2017-08-28T10:20:00.331Z,4.13
2017-08-28T10:22:35.447Z,4.23
2017-08-28T10:25:10.021Z,4.23
2017-08-28T10:27:44.460Z,3.20
2017-08-28T10:30:18.769Z,6.67
2017-08-28T10:32:53.109Z,4.33
2017-08-28T10:35:27.897Z,3.70
2017-08-28T10:38:02.816Z,5.00
2017-08-28T10:40:38.277Z,3.97
2017-08-28T10:43:12.709Z,3.30
2017-08-28T10:45:47.228Z,3.70
2017-08-28T10:48:21.765Z,5.80
2017-08-28T10:50:57.048Z,2.80
2017-08-28T10:53:31.507Z,2.73
2017-08-28T10:56:05.881Z,4.70
2017-08-28T10:58:40.605Z,3.43
2017-08-28T11:01:14.984Z,3.77
2017-08-28T11:03:49.367Z,3.67
2017-08-28T11:06:24.061Z,4.53
2017-08-28T11:08:58.617Z,3.50
2017-08-28T11:11:33.016Z,6.87
2017-08-28T11:14:07.617Z,3.90
2017-08-28T11:16:42.095Z,5.20
2017-08-28T11:19:16.531Z,3.57
2017-08-28T11:21:51.134Z,3.80
2017-08-28T11:24:26.428Z,5.90
2017-08-28T11:27:00.888Z,3.53
2017-08-28T11:29:35.232Z,8.53
2017-08-28T11:32:09.834Z,3.83
2017-08-28T11:34:44.327Z,3.80
2017-08-28T11:37:18.868Z,4.17
2017-08-28T11:39:53.269Z,5.97
2017-08-28T11:42:27.876Z,3.20
2017-08-28T11:45:02.453Z,2.63
2017-08-28T11:47:36.997Z,3.30
2017-08-28T11:50:11.324Z,2.50
2017-08-28T11:52:45.964Z,3.43
2017-08-28T11:55:20.544Z,4.30
2017-08-28T11:57:55.236Z,5.80
2017-08-28T12:00:29.709Z,2.50
2017-08-28T12:03:04.292Z,5.10
2017-08-28T12:05:38.786Z,4.00
2017-08-28T12:08:13.322Z,7.30
2017-08-28T12:10:47.815Z,3.63
2017-08-28T12:13:22.347Z,3.60
2017-08-28T12:15:56.690Z,4.57
2017-08-28T12:18:32.134Z,4.30
2017-08-28T12:21:06.550Z,4.80
2017-08-28T12:23:41.719Z,8.60
2017-08-28T12:26:16.092Z,8.47
2017-08-28T12:28:50.541Z,4.93
2017-08-28T12:31:24.974Z,5.20
2017-08-28T12:33:59.399Z,4.50
2017-08-28T12:36:34.018Z,5.20
2017-08-28T12:39:08.481Z,4.60
2017-08-28T12:41:42.917Z,5.67
2017-08-28T12:44:17.372Z,4.70
2017-08-28T12:46:51.781Z,4.80
2017-08-28T12:49:26.306Z,4.47
2017-08-28T12:52:00.772Z,11.50
2017-08-28T12:54:35.080Z,5.17
2017-08-28T12:57:09.457Z,14.73
2017-08-28T12:59:43.901Z,6.13
2017-08-28T13:02:18.285Z,6.30
2017-08-28T13:04:52.654Z,7.13
2017-08-28T13:07:27.110Z,6.80
2017-08-28T13:10:01.845Z,10.40
2017-08-28T13:12:36.241Z,5.00
2017-08-28T13:15:11.479Z,6.27
2017-08-28T13:17:45.899Z,4.60
2017-08-28T13:20:20.331Z,4.73
2017-08-28T13:22:54.761Z,4.77
2017-08-28T13:25:29.860Z,5.33
2017-08-28T13:28:04.413Z,4.77
2017-08-28T13:30:39.017Z,4.60
2017-08-28T13:33:13.563Z,5.70
2017-08-28T13:35:48.096Z,5.87
2017-08-28T13:38:23.790Z,5.00
2017-08-28T13:40:58.274Z,4.43
2017-08-28T13:43:32.927Z,6.47
2017-08-28T13:46:07.261Z,7.73
2017-08-28T13:48:41.728Z,6.30
2017-08-28T13:51:16.129Z,5.30
2017-08-28T13:53:50.647Z,6.77
2017-08-28T13:56:25.017Z,5.90
2017-08-28T13:58:59.516Z,5.63
2017-08-28T14:01:34.170Z,5.07
2017-08-28T14:04:08.617Z,6.50
2017-08-28T14:06:43.069Z,5.63
2017-08-28T14:09:17.677Z,4.90
2017-08-28T14:11:52.057Z,4.50
2017-08-28T14:14:26.597Z,11.07
2017-08-28T14:17:00.951Z,8.50
2017-08-28T14:19:35.352Z,5.50
2017-08-28T14:22:09.816Z,5.23
2017-08-28T14:24:44.410Z,4.47
2017-08-28T14:27:18.792Z,6.30
2017-08-28T14:29:53.438Z,4.13
2017-08-28T14:32:27.812Z,6.20
2017-08-28T14:35:02.342Z,6.40
2017-08-28T14:37:36.784Z,6.30
2017-08-28T14:40:11.319Z,4.47
2017-08-28T14:42:45.768Z,7.80
2017-08-28T14:45:21.052Z,4.80
2017-08-28T14:47:56.238Z,5.17
2017-08-28T14:50:30.766Z,5.17
2017-08-28T14:53:05.369Z,5.07
2017-08-28T14:55:39.911Z,4.43
2017-08-28T14:58:14.313Z,5.03
2017-08-28T15:00:48.773Z,5.67
2017-08-28T15:03:23.268Z,4.43
2017-08-28T15:05:57.753Z,4.87
2017-08-28T15:08:32.094Z,6.00
2017-08-28T15:11:06.479Z,4.40
2017-08-28T15:13:40.849Z,4.97
2017-08-28T15:16:15.246Z,6.23
2017-08-28T15:18:49.881Z,4.97
2017-08-28T15:21:24.498Z,5.43
2017-08-28T15:23:59.113Z,4.83
2017-08-28T15:26:33.754Z,6.17
2017-08-28T15:29:08.220Z,6.20
2017-08-28T15:31:42.768Z,5.30
2017-08-28T15:34:17.286Z,4.63
2017-08-28T15:36:51.909Z,6.07
2017-08-28T15:39:26.307Z,5.60
2017-08-28T15:42:00.808Z,4.43
2017-08-28T15:44:35.197Z,5.10
2017-08-28T15:47:09.689Z,6.90
2017-08-28T15:49:44.237Z,5.40
2017-08-28T15:52:18.601Z,8.63
2017-08-28T15:54:53.411Z,5.57
2017-08-28T15:57:28.082Z,4.73
2017-08-28T16:00:02.726Z,5.67
2017-08-28T16:02:37.237Z,4.77
2017-08-28T16:05:11.789Z,7.03
2017-08-28T16:07:46.153Z,6.57
2017-08-28T16:10:20.509Z,5.77
2017-08-28T16:12:54.848Z,5.57
2017-08-28T16:15:29.345Z,7.73
2017-08-28T16:18:04.101Z,7.70
2017-08-28T16:20:38.556Z,5.43
2017-08-28T16:23:13.210Z,5.03
2017-08-28T16:25:47.864Z,5.33
2017-08-28T16:28:22.353Z,10.50
2017-08-28T16:30:56.956Z,5.60
2017-08-28T16:33:31.553Z,6.83
2017-08-28T16:36:05.955Z,5.47
2017-08-28T16:38:40.491Z,5.00
2017-08-28T16:41:15.214Z,7.57
2017-08-28T16:43:49.605Z,5.30
2017-08-28T16:46:24.263Z,4.60
2017-08-28T16:48:58.784Z,5.27
2017-08-28T16:51:34.006Z,5.30
2017-08-28T16:54:08.496Z,6.40
2017-08-28T16:56:43.099Z,6.97
2017-08-28T16:59:17.541Z,6.30
2017-08-28T17:01:51.953Z,6.93
2017-08-28T17:04:26.402Z,5.53
2017-08-28T17:07:00.972Z,8.17
2017-08-28T17:09:45.816Z,5.57
2017-08-28T17:12:20.261Z,5.43
2017-08-28T17:14:54.690Z,5.97
2017-08-28T17:17:29.472Z,5.00
2017-08-28T17:20:03.964Z,8.00
2017-08-28T17:22:44.468Z,4.83
2017-08-28T17:25:18.865Z,6.73
2017-08-28T17:27:53.572Z,5.30
2017-08-28T17:30:28.011Z,8.73
2017-08-28T17:33:02.692Z,7.63
2017-08-28T17:35:37.233Z,6.33
2017-08-28T17:38:11.792Z,5.27
2017-08-28T17:40:46.146Z,5.93
2017-08-28T17:43:20.714Z,5.20
2017-08-28T17:45:55.173Z,5.93
2017-08-28T17:48:29.489Z,6.97
2017-08-28T17:51:03.899Z,5.53
2017-08-28T17:53:38.246Z,5.37
2017-08-28T17:56:12.543Z,8.57
2017-08-28T17:58:47.027Z,6.70
2017-08-28T18:01:21.661Z,6.53
2017-08-28T18:03:56.097Z,5.67
2017-08-28T18:06:30.464Z,6.40
2017-08-28T18:09:04.988Z,7.07
2017-08-28T18:11:40.534Z,9.80
2017-08-28T18:14:15.619Z,9.13
2017-08-28T18:16:50.125Z,7.80
2017-08-28T18:19:24.606Z,9.07
2017-08-28T18:21:59.248Z,11.63
2017-08-28T18:24:33.689Z,16.00
2017-08-28T18:27:08.941Z,19.70
2017-08-28T18:29:43.709Z,22.57
2017-08-28T18:32:18.545Z,24.00
2017-08-28T18:34:52.945Z,28.40
2017-08-28T18:37:27.300Z,26.40
2017-08-28T18:40:01.800Z,32.70
2017-08-28T18:42:36.328Z,32.47
2017-08-28T18:45:10.783Z,29.73
2017-08-28T18:47:45.301Z,28.17
2017-08-28T18:50:19.671Z,26.47
2017-08-28T18:52:54.077Z,22.83
2017-08-28T18:55:28.691Z,21.50
2017-08-28T18:58:03.195Z,17.73
2017-08-28T19:00:37.707Z,15.07
2017-08-28T19:03:12.178Z,16.67
2017-08-28T19:05:46.816Z,15.80
2017-08-28T19:08:22.822Z,12.27
2017-08-28T19:10:57.769Z,13.83
2017-08-28T19:13:32.594Z,11.90
2017-08-28T19:16:07.173Z,16.12
2017-08-28T19:18:41.840Z,15.38
2017-08-28T19:21:16.221Z,12.48
2017-08-28T19:23:50.647Z,11.95
2017-08-28T19:26:28.910Z,10.93
2017-08-28T19:29:03.286Z,10.38
2017-08-28T19:31:38.356Z,8.13
2017-08-28T19:34:19.072Z,7.97
2017-08-28T19:37:00.132Z,7.70
2017-08-28T19:39:34.773Z,9.18
2017-08-28T19:42:09.181Z,7.43
2017-08-28T19:44:43.851Z,7.22
2017-08-28T19:47:18.403Z,7.97
2017-08-28T19:49:52.947Z,7.12
2017-08-28T19:52:27.479Z,6.80
2017-08-28T19:55:01.931Z,6.93
2017-08-28T19:57:36.219Z,7.07
2017-08-28T20:00:10.673Z,7.05
2017-08-28T20:02:50.890Z,7.70
2017-08-28T20:05:25.266Z,6.00
2017-08-28T20:07:59.597Z,6.65
2017-08-28T20:10:34.020Z,7.37
2017-08-28T20:13:08.397Z,8.27
2017-08-28T20:15:42.748Z,7.35
2017-08-28T20:18:17.751Z,7.32
2017-08-28T20:20:52.424Z,6.57
2017-08-28T20:23:26.920Z,7.10
2017-08-28T20:26:01.368Z,5.47
2017-08-28T20:28:35.911Z,7.95
2017-08-28T20:31:10.411Z,6.50
2017-08-28T20:33:44.755Z,7.32
2017-08-28T20:36:19.291Z,7.57
2017-08-28T20:38:53.668Z,5.55
2017-08-28T20:41:28.108Z,5.37
2017-08-28T20:44:02.834Z,6.57
2017-08-28T20:46:37.441Z,4.62
2017-08-28T20:49:11.941Z,6.50
2017-08-28T20:51:46.470Z,5.50
2017-08-28T20:54:21.204Z,9.23
2017-08-28T20:56:55.541Z,5.45
2017-08-28T20:59:29.953Z,4.65
2017-08-28T21:02:04.621Z,7.03
2017-08-28T21:04:39.205Z,6.95
2017-08-28T21:07:13.558Z,4.53
2017-08-28T21:09:47.936Z,7.20
2017-08-28T21:12:22.651Z,4.85
2017-08-28T21:14:56.976Z,5.28
2017-08-28T21:17:31.699Z,6.05
2017-08-28T21:20:06.201Z,3.95
2017-08-28T21:22:40.605Z,5.18
2017-08-28T21:25:15.068Z,5.10
2017-08-28T21:27:49.396Z,4.18
2017-08-28T21:30:24.004Z,8.63
2017-08-28T21:32:58.410Z,5.10
2017-08-28T21:35:33.032Z,5.12
2017-08-28T21:38:07.429Z,6.45
2017-08-28T21:40:41.876Z,5.03
2017-08-28T21:43:16.296Z,6.18
2017-08-28T21:45:50.737Z,5.62
2017-08-28T21:48:25.245Z,5.72
2017-08-28T21:50:59.952Z,4.40
2017-08-28T21:53:34.477Z,4.30
2017-08-28T21:56:08.836Z,6.85
2017-08-28T21:58:43.208Z,5.12
2017-08-28T22:01:17.842Z,4.28
2017-08-28T22:03:52.145Z,5.15
2017-08-28T22:06:26.713Z,6.07
2017-08-28T22:09:01.192Z,7.80
2017-08-28T22:11:35.746Z,5.10
2017-08-28T22:14:10.240Z,4.90
2017-08-28T22:16:44.635Z,4.47
2017-08-28T22:19:18.964Z,4.50
2017-08-28T22:21:53.304Z,5.03
2017-08-28T22:24:27.652Z,6.25
2017-08-28T22:27:02.033Z,5.87
2017-08-28T22:29:36.549Z,5.35
2017-08-28T22:32:11.182Z,11.38
2017-08-28T22:34:45.496Z,5.55
2017-08-28T22:37:19.956Z,5.68
2017-08-28T22:39:54.454Z,5.28
2017-08-28T22:42:29.569Z,4.80
2017-08-28T22:45:03.977Z,5.40
2017-08-28T22:47:38.517Z,7.45
2017-08-28T22:50:12.978Z,5.07
2017-08-28T22:52:47.332Z,6.03
2017-08-28T22:55:21.736Z,8.07
2017-08-28T22:57:56.216Z,5.15
2017-08-28T23:00:31.001Z,6.07
2017-08-28T23:03:05.425Z,4.85
2017-08-28T23:05:40.668Z,8.00
2017-08-28T23:08:14.977Z,4.97
2017-08-28T23:10:49.527Z,6.12
2017-08-28T23:13:23.895Z,5.30
2017-08-28T23:15:58.341Z,5.15
2017-08-28T23:18:32.745Z,5.15
2017-08-28T23:21:07.193Z,5.10
2017-08-28T23:23:41.480Z,4.75
2017-08-28T23:26:16.771Z,4.95
2017-08-28T23:28:51.285Z,5.90
2017-08-28T23:31:25.756Z,5.82
2017-08-28T23:34:00.141Z,5.65
2017-08-28T23:36:34.740Z,4.82
2017-08-28T23:39:10.088Z,5.53
2017-08-28T23:41:45.442Z,5.72
2017-08-28T23:44:20.765Z,8.18
2017-08-28T23:46:55.082Z,7.80
2017-08-28T23:49:30.326Z,5.47
2017-08-28T23:52:04.814Z,7.07
2017-08-28T23:54:39.401Z,5.15
2017-08-28T23:57:13.871Z,5.37
2017-08-28T23:59:48.429Z,5.37
